createdAt,value
2022-10-25T00:01:53.694Z,1.55
2022-10-25T00:06:47.643Z,1.50
2022-10-25T00:09:14.156Z,1.10
2022-10-25T00:11:40.655Z,1.50
2022-10-25T00:14:08.032Z,1.30
2022-10-25T00:16:37.504Z,1.45
2022-10-25T00:19:04.998Z,1.40
2022-10-25T00:21:31.509Z,1.27
2022-10-25T00:23:58.063Z,1.80
2022-10-25T00:26:24.564Z,1.27
2022-10-25T00:28:54.448Z,1.55
2022-10-25T00:31:20.915Z,1.50
2022-10-25T00:33:47.449Z,1.50
2022-10-25T00:36:20.198Z,1.70
2022-10-25T00:38:46.989Z,1.43
2022-10-25T00:41:15.804Z,1.48
2022-10-25T00:43:45.193Z,1.63
2022-10-25T00:46:23.970Z,1.45
2022-10-25T00:49:02.970Z,1.50
2022-10-25T00:51:37.314Z,1.40
2022-10-25T00:54:04.452Z,1.63
2022-10-25T00:56:35.839Z,1.38
2022-10-25T00:59:06.613Z,1.70
2022-10-25T01:01:33.722Z,1.52
2022-10-25T01:04:04.738Z,1.65
2022-10-25T01:06:43.029Z,1.60
2022-10-25T01:09:13.641Z,1.23
2022-10-25T01:11:40.186Z,1.70
2022-10-25T01:14:09.205Z,1.20
2022-10-25T01:17:03.057Z,1.38
2022-10-25T01:19:42.219Z,1.52
2022-10-25T01:22:22.911Z,1.38
2022-10-25T01:25:30.905Z,1.23
2022-10-25T01:28:00.421Z,1.40
2022-10-25T01:30:58.319Z,1.58
2022-10-25T01:33:47.040Z,1.75
2022-10-25T01:36:30.391Z,1.30
2022-10-25T01:39:09.168Z,1.40
2022-10-25T01:41:55.884Z,1.02
2022-10-25T01:44:46.308Z,1.65
2022-10-25T01:47:19.834Z,1.38
2022-10-25T01:50:02.652Z,1.67
2022-10-25T01:52:29.145Z,1.40
2022-10-25T01:54:55.599Z,1.67
2022-10-25T01:57:34.228Z,1.42
2022-10-25T02:00:03.572Z,1.10
2022-10-25T02:02:44.713Z,0.85
2022-10-25T02:05:37.371Z,1.10
2022-10-25T02:08:32.778Z,1.67
2022-10-25T02:11:23.530Z,1.20
2022-10-25T02:14:05.856Z,1.38
2022-10-25T02:16:38.094Z,1.08
2022-10-25T02:19:08.805Z,1.02
2022-10-25T02:21:37.051Z,1.10
2022-10-25T02:24:16.125Z,1.10
2022-10-25T02:26:44.408Z,1.30
2022-10-25T02:29:12.531Z,2.00
2022-10-25T02:31:39.453Z,1.20
2022-10-25T02:34:06.347Z,1.70
2022-10-25T02:36:32.831Z,1.60
2022-10-25T02:39:00.098Z,1.50
2022-10-25T02:41:26.784Z,1.50
2022-10-25T02:43:53.264Z,1.20
2022-10-25T02:46:22.174Z,1.02
2022-10-25T02:48:49.522Z,1.15
2022-10-25T02:51:16.741Z,1.17
2022-10-25T02:53:43.663Z,1.45
2022-10-25T02:56:16.168Z,1.40
2022-10-25T02:58:44.067Z,1.60
2022-10-25T03:01:11.182Z,1.25
2022-10-25T03:03:37.986Z,1.17
2022-10-25T03:06:04.631Z,0.90
2022-10-25T03:08:31.129Z,1.10
2022-10-25T03:10:57.686Z,1.10
2022-10-25T03:13:24.270Z,1.20
2022-10-25T03:15:50.713Z,1.10
2022-10-25T03:18:17.675Z,1.48
2022-10-25T03:20:44.663Z,1.13
2022-10-25T03:23:12.236Z,1.00
2022-10-25T03:25:38.749Z,1.20
2022-10-25T03:28:05.379Z,1.42
2022-10-25T03:30:32.169Z,1.35
2022-10-25T03:32:58.951Z,1.30
2022-10-25T03:35:26.168Z,1.10
2022-10-25T03:37:52.864Z,0.90
2022-10-25T03:40:20.436Z,1.20
2022-10-25T03:42:47.067Z,1.30
2022-10-25T03:45:13.626Z,1.38
2022-10-25T03:47:40.472Z,1.20
2022-10-25T03:50:07.607Z,1.40
2022-10-25T03:52:34.449Z,1.27
2022-10-25T03:55:00.921Z,1.20
2022-10-25T03:57:27.376Z,1.30
2022-10-25T03:59:53.908Z,1.45
2022-10-25T04:02:20.521Z,1.00
2022-10-25T04:04:46.979Z,1.10
2022-10-25T04:07:13.419Z,1.35
2022-10-25T04:09:39.963Z,1.30
2022-10-25T04:12:06.447Z,1.65
2022-10-25T04:14:32.947Z,1.23
2022-10-25T04:16:59.408Z,1.40
2022-10-25T04:19:25.873Z,1.08
2022-10-25T04:21:52.351Z,1.40
2022-10-25T04:24:18.984Z,1.50
2022-10-25T04:26:45.472Z,1.30
2022-10-25T04:29:12.519Z,1.30
2022-10-25T04:31:38.988Z,1.23
2022-10-25T04:34:05.473Z,1.65
2022-10-25T04:36:32.005Z,1.42
2022-10-25T04:38:58.540Z,1.42
2022-10-25T04:41:25.009Z,1.25
2022-10-25T04:43:52.223Z,1.48
2022-10-25T04:46:19.736Z,1.08
2022-10-25T04:48:46.617Z,1.35
2022-10-25T04:51:14.019Z,1.60
2022-10-25T04:53:40.933Z,1.05
2022-10-25T04:56:10.035Z,1.40
2022-10-25T04:58:37.273Z,1.20
2022-10-25T05:01:10.282Z,1.50
2022-10-25T05:03:36.824Z,1.23
2022-10-25T05:06:17.352Z,1.20
2022-10-25T05:08:45.888Z,1.27
2022-10-25T05:11:13.808Z,1.38
2022-10-25T05:13:41.597Z,1.45
2022-10-25T05:16:11.160Z,1.55
2022-10-25T05:18:37.616Z,1.40
2022-10-25T05:21:05.817Z,1.73
2022-10-25T05:23:34.240Z,1.80
2022-10-25T05:26:08.029Z,1.65
2022-10-25T05:28:36.256Z,2.00
2022-10-25T05:31:07.874Z,1.42
2022-10-25T05:33:34.520Z,1.60
2022-10-25T05:36:02.175Z,1.65
2022-10-25T05:38:32.013Z,1.67
2022-10-25T05:41:00.842Z,1.52
2022-10-25T05:43:27.458Z,1.98
2022-10-25T05:46:21.590Z,2.40
2022-10-25T05:48:49.433Z,1.70
2022-10-25T05:51:33.130Z,1.95
2022-10-25T05:54:11.806Z,1.65
2022-10-25T05:56:39.048Z,1.90
2022-10-25T05:59:11.131Z,1.55
2022-10-25T06:01:40.258Z,1.50
2022-10-25T06:04:07.818Z,1.80
2022-10-25T06:06:34.920Z,1.60
2022-10-25T06:09:02.036Z,1.60
2022-10-25T06:11:30.030Z,1.63
2022-10-25T06:13:56.579Z,1.30
2022-10-25T06:16:23.389Z,1.83
2022-10-25T06:18:50.182Z,2.05
2022-10-25T06:21:19.555Z,1.50
2022-10-25T06:23:47.538Z,2.03
2022-10-25T06:26:17.370Z,1.67
2022-10-25T06:28:44.318Z,1.80
2022-10-25T06:31:16.296Z,1.60
2022-10-25T06:33:43.483Z,1.70
2022-10-25T06:36:16.353Z,1.80
2022-10-25T06:38:46.538Z,1.08
2022-10-25T06:41:15.806Z,1.67
2022-10-25T06:43:42.315Z,1.88
2022-10-25T06:46:18.023Z,1.40
2022-10-25T06:48:44.555Z,1.98
2022-10-25T06:51:11.017Z,2.30
2022-10-25T06:53:38.356Z,1.52
2022-10-25T06:56:09.431Z,1.63
2022-10-25T06:58:40.096Z,1.60
2022-10-25T07:01:10.090Z,1.60
2022-10-25T07:03:37.008Z,1.60
2022-10-25T07:06:11.891Z,1.85
2022-10-25T07:08:40.762Z,1.55
2022-10-25T07:11:09.111Z,1.90
2022-10-25T07:13:35.622Z,1.80
2022-10-25T07:16:07.593Z,1.60
2022-10-25T07:18:35.651Z,1.50
2022-10-25T07:21:03.869Z,1.45
2022-10-25T07:23:30.672Z,1.45
2022-10-25T07:25:58.034Z,2.13
2022-10-25T07:28:24.800Z,1.35
2022-10-25T07:30:51.593Z,1.83
2022-10-25T07:33:19.707Z,1.40
2022-10-25T07:35:59.046Z,1.50
2022-10-25T07:38:33.007Z,1.60
2022-10-25T07:40:59.860Z,1.42
2022-10-25T07:43:27.326Z,1.50
2022-10-25T07:45:54.218Z,1.70
2022-10-25T07:48:21.261Z,1.67
2022-10-25T07:50:48.184Z,2.05
2022-10-25T07:53:14.710Z,1.50
2022-10-25T07:55:41.183Z,1.63
2022-10-25T07:58:10.957Z,1.90
2022-10-25T08:00:37.466Z,1.42
2022-10-25T08:03:04.191Z,1.73
2022-10-25T08:05:30.796Z,1.65
2022-10-25T08:07:57.394Z,1.70
2022-10-25T08:10:23.970Z,1.80
2022-10-25T08:12:51.305Z,1.75
2022-10-25T08:15:18.353Z,1.63
2022-10-25T08:17:45.144Z,1.80
2022-10-25T08:20:12.376Z,1.40
2022-10-25T08:22:38.844Z,1.92
2022-10-25T08:25:05.867Z,1.83
2022-10-25T08:27:32.536Z,1.80
2022-10-25T08:29:59.076Z,1.83
2022-10-25T08:32:25.573Z,2.15
2022-10-25T08:34:52.032Z,2.05
2022-10-25T08:37:18.510Z,1.83
2022-10-25T08:39:44.995Z,1.75
2022-10-25T08:42:21.973Z,2.22
2022-10-25T08:45:04.143Z,1.88
2022-10-25T08:47:38.552Z,1.75
2022-10-25T08:50:37.093Z,1.98
2022-10-25T08:53:08.988Z,1.60
2022-10-25T08:55:41.798Z,1.40
2022-10-25T08:58:20.597Z,1.75
2022-10-25T09:00:49.064Z,2.28
2022-10-25T09:03:25.636Z,1.88
2022-10-25T09:06:14.426Z,1.67
2022-10-25T09:08:57.934Z,1.90
2022-10-25T09:11:30.245Z,1.80
2022-10-25T09:14:26.074Z,1.83
2022-10-25T09:16:57.206Z,1.50
2022-10-25T09:19:34.604Z,1.63
2022-10-25T09:22:05.429Z,1.90
2022-10-25T09:24:54.012Z,2.00
2022-10-25T09:27:48.482Z,1.83
2022-10-25T09:30:15.613Z,1.60
2022-10-25T09:32:44.727Z,1.65
2022-10-25T09:35:20.539Z,1.83
2022-10-25T09:37:55.491Z,1.98
2022-10-25T09:40:25.516Z,1.75
2022-10-25T09:43:01.422Z,1.52
2022-10-25T09:45:51.937Z,1.70
2022-10-25T09:48:27.603Z,1.70
2022-10-25T09:51:04.348Z,1.42
2022-10-25T09:53:33.177Z,1.50
2022-10-25T09:56:04.755Z,1.60
2022-10-25T09:58:38.828Z,2.45
2022-10-25T10:01:12.987Z,1.90
2022-10-25T10:03:41.229Z,2.38
2022-10-25T10:06:22.888Z,1.90
2022-10-25T10:08:53.155Z,2.03
2022-10-25T10:11:20.664Z,2.00
2022-10-25T10:14:06.137Z,1.80
2022-10-25T10:16:42.209Z,2.03
2022-10-25T10:19:19.331Z,1.65
2022-10-25T10:21:52.483Z,1.85
2022-10-25T10:24:34.795Z,1.80
2022-10-25T10:27:13.420Z,1.85
2022-10-25T10:29:58.007Z,1.70
2022-10-25T10:32:29.359Z,1.80
2022-10-25T10:34:58.219Z,2.38
2022-10-25T10:37:27.134Z,2.17
2022-10-25T10:39:53.638Z,1.80
2022-10-25T10:42:36.556Z,2.70
2022-10-25T10:45:07.826Z,2.22
2022-10-25T10:47:56.969Z,1.70
2022-10-25T10:50:24.264Z,2.00
2022-10-25T10:53:01.435Z,1.92
2022-10-25T10:55:36.775Z,1.42
2022-10-25T10:58:12.224Z,1.77
2022-10-25T11:00:38.949Z,1.58
2022-10-25T11:03:05.838Z,2.10
2022-10-25T11:05:37.811Z,2.00
2022-10-25T11:08:07.255Z,1.90
2022-10-25T11:10:35.503Z,1.65
2022-10-25T11:13:19.816Z,1.92
2022-10-25T11:16:04.954Z,2.50
2022-10-25T11:19:08.697Z,1.83
2022-10-25T11:21:53.883Z,1.80
2022-10-25T11:24:52.991Z,1.80
2022-10-25T11:27:36.700Z,1.80
2022-10-25T11:30:19.924Z,1.35
2022-10-25T11:33:03.631Z,1.60
2022-10-25T11:35:45.030Z,1.52
2022-10-25T11:38:23.710Z,1.38
2022-10-25T11:41:08.572Z,1.67
2022-10-25T11:44:02.580Z,1.58
2022-10-25T11:46:47.524Z,1.80
2022-10-25T11:49:34.173Z,1.60
2022-10-25T11:52:19.358Z,1.52
2022-10-25T11:54:57.917Z,1.50
2022-10-25T11:57:33.476Z,1.40
2022-10-25T12:00:19.001Z,1.70
2022-10-25T12:03:03.794Z,1.48
2022-10-25T12:05:42.473Z,1.48
2022-10-25T12:08:38.423Z,1.55
2022-10-25T12:11:11.837Z,1.50
2022-10-25T12:13:45.141Z,1.40
2022-10-25T12:16:15.980Z,1.30
2022-10-25T12:18:46.216Z,1.52
2022-10-25T12:21:20.087Z,1.60
2022-10-25T12:23:52.127Z,1.60
2022-10-25T12:26:45.396Z,1.80
2022-10-25T12:29:21.004Z,2.03
2022-10-25T12:31:56.637Z,1.67
2022-10-25T12:34:40.233Z,1.33
2022-10-25T12:37:14.875Z,1.70
2022-10-25T12:39:46.045Z,1.58
2022-10-25T12:42:27.101Z,1.88
2022-10-25T12:45:20.084Z,1.42
2022-10-25T12:48:03.870Z,1.40
2022-10-25T12:50:56.796Z,1.52
2022-10-25T12:53:45.076Z,1.48
2022-10-25T12:56:32.742Z,1.33
2022-10-25T12:59:25.787Z,1.40
2022-10-25T13:02:30.463Z,1.40
2022-10-25T13:05:50.952Z,1.83
2022-10-25T13:08:20.091Z,1.30
2022-10-25T13:10:56.450Z,1.30
2022-10-25T13:13:26.955Z,1.23
2022-10-25T13:15:58.820Z,1.48
2022-10-25T13:18:34.070Z,1.50
2022-10-25T13:21:02.731Z,1.55
2022-10-25T13:23:51.411Z,1.67
2022-10-25T13:26:20.073Z,1.27
2022-10-25T13:28:51.669Z,1.30
2022-10-25T13:31:36.465Z,1.50
2022-10-25T13:34:12.127Z,1.73
2022-10-25T13:36:55.864Z,1.42
2022-10-25T13:39:45.269Z,1.40
2022-10-25T13:42:14.481Z,1.60
2022-10-25T13:45:03.581Z,1.38
2022-10-25T13:47:36.693Z,1.77
2022-10-25T13:50:33.214Z,1.50
2022-10-25T13:53:05.236Z,1.77
2022-10-25T13:55:38.328Z,1.17
2022-10-25T13:58:31.960Z,1.45
2022-10-25T14:03:51.197Z,1.38
2022-10-25T14:06:27.724Z,1.50
2022-10-25T14:09:19.661Z,1.42
2022-10-25T14:11:53.413Z,1.20
2022-10-25T14:14:27.448Z,1.40
2022-10-25T14:17:22.168Z,1.30
2022-10-25T14:19:52.432Z,1.27
2022-10-25T14:22:30.383Z,1.33
2022-10-25T14:25:03.039Z,1.20
2022-10-25T14:27:32.451Z,1.20
2022-10-25T14:30:20.378Z,1.08
2022-10-25T14:33:01.281Z,1.65
2022-10-25T14:38:27.744Z,1.10
2022-10-25T14:41:10.176Z,1.73
2022-10-25T14:43:38.179Z,1.30
2022-10-25T14:46:10.561Z,1.30
2022-10-25T14:48:37.159Z,1.17
2022-10-25T14:51:19.487Z,1.35
2022-10-25T14:54:12.196Z,1.23
2022-10-25T14:56:44.796Z,1.20
2022-10-25T14:59:22.204Z,1.42
2022-10-25T15:02:01.728Z,1.40
2022-10-25T15:04:32.531Z,1.33
2022-10-25T15:06:59.828Z,1.80
2022-10-25T15:09:43.231Z,1.90
2022-10-25T15:12:18.261Z,1.27
2022-10-25T15:14:47.648Z,1.30
2022-10-25T15:17:25.024Z,1.38
2022-10-25T15:20:00.539Z,1.50
2022-10-25T15:22:41.993Z,1.10
2022-10-25T15:25:22.164Z,1.17
2022-10-25T15:27:50.703Z,1.48
2022-10-25T15:30:39.791Z,1.70
2022-10-25T15:33:18.255Z,1.90
2022-10-25T15:36:11.147Z,2.22
2022-10-25T15:39:05.879Z,1.70
2022-10-25T15:41:24.166Z,2.80
2022-10-25T15:43:51.703Z,2.78
2022-10-25T15:46:28.418Z,3.20
2022-10-25T15:48:55.196Z,3.25
2022-10-25T15:51:22.433Z,3.65
2022-10-25T15:53:50.004Z,2.90
2022-10-25T15:56:19.398Z,3.40
2022-10-25T15:58:46.054Z,2.88
2022-10-25T16:01:12.833Z,3.00
2022-10-25T16:03:39.452Z,3.20
2022-10-25T16:06:06.203Z,3.40
2022-10-25T16:08:32.767Z,3.08
2022-10-25T16:10:59.492Z,3.20
2022-10-25T16:13:38.056Z,3.42
2022-10-25T16:16:21.917Z,3.60
2022-10-25T16:18:53.034Z,3.60
2022-10-25T16:21:21.205Z,3.45
2022-10-25T16:23:48.400Z,3.88
2022-10-25T16:26:33.661Z,3.75
2022-10-25T16:29:00.157Z,4.72
2022-10-25T16:31:26.699Z,6.90
2022-10-25T16:33:53.175Z,11.07
2022-10-25T16:36:20.559Z,12.10
2022-10-25T16:38:47.263Z,10.88
2022-10-25T16:41:34.042Z,11.48
2022-10-25T16:44:00.624Z,11.40
2022-10-25T16:46:27.256Z,13.50
2022-10-25T16:48:55.866Z,11.80
2022-10-25T16:51:28.812Z,10.70
2022-10-25T16:53:56.014Z,11.02
2022-10-25T16:56:22.912Z,12.07
2022-10-25T16:58:49.423Z,11.32
2022-10-25T17:01:44.771Z,12.35
2022-10-25T17:04:11.999Z,12.20
2022-10-25T17:06:42.595Z,11.40
2022-10-25T17:09:10.054Z,11.90
2022-10-25T17:11:36.613Z,11.43
2022-10-25T17:14:04.072Z,10.25
2022-10-25T17:16:30.981Z,11.20
2022-10-25T17:18:57.521Z,10.60
2022-10-25T17:21:24.125Z,9.70
2022-10-25T18:09:41.983Z,16.25
2022-10-25T18:12:09.529Z,16.33
2022-10-25T18:14:36.225Z,15.07
2022-10-25T18:17:03.354Z,15.13
2022-10-25T18:19:29.830Z,15.60
2022-10-25T18:22:00.347Z,14.75
2022-10-25T18:24:29.107Z,14.82
2022-10-25T18:26:56.130Z,14.82
2022-10-25T18:29:23.425Z,15.60
2022-10-25T18:31:50.021Z,14.43
2022-10-25T18:34:16.526Z,13.98
2022-10-25T18:36:42.987Z,14.45
2022-10-25T18:39:09.600Z,14.35
2022-10-25T18:41:36.243Z,14.32
2022-10-25T18:44:03.006Z,13.13
2022-10-25T18:46:31.829Z,14.10
